Time;durP1;ratioP1;P1;durP2;ratioP2;P2;SDS_P1;SDS_P2;PMS_P1;PMS_P2;Temp;Humidity;BMP_temperature;BMP_pressure;BME280_temperature;BME280_humidity;BME280_pressure;Samples;Min_cycle;Max_cycle;Signal;HPM_P1;HPM_P2
2022/12/03 00:00:06;;;;;;;;;;;3.90;91.60;;;;;;4937855;29;954;-69
2022/12/03 00:02:39;;;;;;;;;;;3.80;91.80;;;;;;4938193;29;1273;-69
2022/12/03 00:05:08;;;;;;;;;;;3.60;91.60;;;;;;4938231;29;994;-70
2022/12/03 00:07:35;;;;;;;;;;;3.60;91.70;;;;;;4937356;29;1165;-69
2022/12/03 00:10:05;;;;;;;;;;;3.70;91.60;;;;;;4937738;29;955;-70
2022/12/03 00:12:33;;;;;;;;;;;3.50;91.40;;;;;;4938191;29;1270;-70
2022/12/03 00:15:00;;;;;;;;;;;3.60;91.60;;;;;;4938150;29;1988;-70
2022/12/03 00:17:28;;;;;;;;;;;3.50;91.50;;;;;;4938475;29;1475;-70
2022/12/03 00:19:56;;;;;;;;;;;3.60;91.30;;;;;;4939996;29;1007;-71
2022/12/03 00:22:24;;;;;;;;;;;3.60;91.50;;;;;;4937412;29;1360;-70
2022/12/03 00:24:51;;;;;;;;;;;3.60;91.60;;;;;;4937948;29;1651;-68
2022/12/03 00:27:21;;;;;;;;;;;3.80;91.50;;;;;;4937016;29;1011;-70
2022/12/03 00:29:48;;;;;;;;;;;3.60;91.60;;;;;;4937368;29;1333;-69
2022/12/03 00:32:16;;;;;;;;;;;3.60;91.50;;;;;;4937238;29;1254;-69
2022/12/03 00:34:43;;;;;;;;;;;3.70;91.60;;;;;;4936959;29;1911;-68
2022/12/03 00:37:11;;;;;;;;;;;3.70;91.50;;;;;;4937178;29;1117;-67
2022/12/03 00:39:38;;;;;;;;;;;3.60;91.40;;;;;;4937055;29;1534;-68
2022/12/03 00:42:06;;;;;;;;;;;3.60;91.50;;;;;;4937378;29;1375;-69
2022/12/03 00:44:35;;;;;;;;;;;3.60;91.50;;;;;;4937210;29;1057;-69
2022/12/03 00:47:03;;;;;;;;;;;3.60;91.70;;;;;;4934422;29;1710;-70
2022/12/03 00:49:31;;;;;;;;;;;3.70;91.50;;;;;;4935766;29;1103;-67
2022/12/03 00:51:58;;;;;;;;;;;3.60;91.50;;;;;;4936766;29;1287;-69
2022/12/03 00:54:26;;;;;;;;;;;3.60;91.60;;;;;;4936795;29;1989;-71
2022/12/03 00:56:58;;;;;;;;;;;3.60;91.60;;;;;;4936397;29;1466;-68
2022/12/03 00:59:26;;;;;;;;;;;3.70;91.60;;;;;;4936708;29;1113;-70
2022/12/03 01:01:55;;;;;;;;;;;3.60;91.50;;;;;;4936233;29;1299;-70
2022/12/03 01:04:23;;;;;;;;;;;3.60;91.60;;;;;;4936969;29;1007;-70
2022/12/03 01:06:51;;;;;;;;;;;3.60;91.80;;;;;;4936304;29;1448;-70
2022/12/03 01:09:18;;;;;;;;;;;3.50;91.70;;;;;;4936616;29;1046;-69
2022/12/03 01:11:46;;;;;;;;;;;3.50;91.80;;;;;;4936499;29;986;-70
2022/12/03 01:14:14;;;;;;;;;;;3.50;92.00;;;;;;4936037;29;1903;-70
2022/12/03 01:16:42;;;;;;;;;;;3.40;92.00;;;;;;4935773;29;1058;-70
2022/12/03 01:19:14;;;;;;;;;;;3.50;91.90;;;;;;4935881;29;1045;-70
2022/12/03 01:21:42;;;;;;;;;;;3.60;91.60;;;;;;4935708;29;1054;-70
2022/12/03 01:24:10;;;;;;;;;;;3.40;91.30;;;;;;4936592;29;1519;-70
2022/12/03 01:26:37;;;;;;;;;;;3.30;91.40;;;;;;4943247;29;1129;-70
2022/12/03 01:29:05;;;;;;;;;;;3.30;91.50;;;;;;4955461;29;1061;-71
2022/12/03 01:34:19;;;;;;;;;;;3.10;91.50;;;;;;4955594;29;1903;-70
2022/12/03 01:36:47;;;;;;;;;;;3.20;91.60;;;;;;4955168;29;1054;-71
2022/12/03 01:39:14;;;;;;;;;;;3.50;91.50;;;;;;4955362;29;1054;-71
2022/12/03 01:41:42;;;;;;;;;;;3.20;91.20;;;;;;4955255;29;1036;-71
2022/12/03 01:44:14;;;;;;;;;;;3.20;91.30;;;;;;4955039;29;1264;-70
2022/12/03 01:46:42;;;;;;;;;;;3.10;91.40;;;;;;4958932;28;1512;-70
2022/12/03 01:49:13;;;;;;;;;;;3.20;91.40;;;;;;4956088;29;1062;-71
2022/12/03 01:51:42;;;;;;;;;;;3.20;91.50;;;;;;4955481;29;1050;-71
2022/12/03 01:54:14;;;;;;;;;;;3.00;91.50;;;;;;4955437;29;1887;-70
2022/12/03 01:56:42;;;;;;;;;;;3.10;91.50;;;;;;4954445;28;1380;-70
2022/12/03 01:59:12;;;;;;;;;;;3.10;91.40;;;;;;4954961;29;1143;-70
2022/12/03 02:01:40;;;;;;;;;;;3.00;91.40;;;;;;4954694;29;1112;-70
2022/12/03 02:04:10;;;;;;;;;;;3.00;91.10;;;;;;4954729;29;1289;-70
2022/12/03 02:06:38;;;;;;;;;;;3.10;91.30;;;;;;4954685;29;1026;-70
2022/12/03 02:09:07;;;;;;;;;;;2.90;91.30;;;;;;4954547;29;1099;-70
2022/12/03 02:11:36;;;;;;;;;;;2.90;91.00;;;;;;4955066;29;2193;-70
2022/12/03 02:17:13;;;;;;;;;;;2.90;91.00;;;;;;5735753;23;1569;-88
2022/12/03 02:19:43;;;;;;;;;;;2.90;90.90;;;;;;4989681;28;1514;-87
2022/12/03 02:22:16;;;;;;;;;;;2.90;90.70;;;;;;4994349;28;1702;-88
2022/12/03 02:24:48;;;;;;;;;;;2.60;90.80;;;;;;4968473;28;969;-88
2022/12/03 02:27:18;;;;;;;;;;;2.70;90.80;;;;;;4963832;29;1684;-89
2022/12/03 02:29:46;;;;;;;;;;;3.10;91.00;;;;;;4963737;28;1738;-89
2022/12/03 02:32:13;;;;;;;;;;;2.80;90.60;;;;;;4972371;28;1053;-90
2022/12/03 02:34:42;;;;;;;;;;;2.80;90.30;;;;;;4963433;28;1915;-89
2022/12/03 02:37:11;;;;;;;;;;;2.80;90.90;;;;;;4966230;29;1510;-91
2022/12/03 02:39:42;;;;;;;;;;;2.60;90.80;;;;;;4962699;28;1618;-88
2022/12/03 02:45:00;;;;;;;;;;;2.70;91.00;;;;;;4975666;28;1049;-90
2022/12/03 02:47:32;;;;;;;;;;;2.70;90.70;;;;;;4962056;28;1526;-88
2022/12/03 02:50:01;;;;;;;;;;;2.70;91.10;;;;;;4961707;28;1645;-89
2022/12/03 02:52:28;;;;;;;;;;;2.70;91.00;;;;;;4962304;29;1616;-90
2022/12/03 02:54:56;;;;;;;;;;;2.70;90.50;;;;;;4961808;29;1907;-89
2022/12/03 02:57:24;;;;;;;;;;;2.70;90.70;;;;;;4961913;29;942;-90
2022/12/03 02:59:52;;;;;;;;;;;2.90;90.90;;;;;;4976266;28;1547;-91
2022/12/03 03:02:21;;;;;;;;;;;2.60;91.00;;;;;;4966237;28;1664;-90
2022/12/03 03:04:49;;;;;;;;;;;2.70;91.30;;;;;;4983134;28;1439;-90
2022/12/03 03:07:19;;;;;;;;;;;2.50;91.30;;;;;;4973682;28;1398;-90
2022/12/03 03:09:55;;;;;;;;;;;2.60;90.90;;;;;;4972988;28;1442;-88
2022/12/03 03:12:26;;;;;;;;;;;2.90;90.90;;;;;;4961810;29;987;-89
2022/12/03 03:14:54;;;;;;;;;;;2.60;91.00;;;;;;4961515;29;1906;-90
2022/12/03 03:17:24;;;;;;;;;;;2.60;90.40;;;;;;4961866;28;1241;-90
2022/12/03 03:19:52;;;;;;;;;;;2.60;90.80;;;;;;4962151;29;974;-89
2022/12/03 03:22:19;;;;;;;;;;;2.90;90.70;;;;;;4965556;29;1571;-89
2022/12/03 03:24:47;;;;;;;;;;;2.40;90.60;;;;;;4974737;28;1633;-89
2022/12/03 03:27:15;;;;;;;;;;;2.50;90.60;;;;;;4969837;29;1735;-89
2022/12/03 03:29:43;;;;;;;;;;;2.50;90.70;;;;;;4961870;28;1729;-90
2022/12/03 03:32:11;;;;;;;;;;;2.50;90.90;;;;;;4960677;29;1535;-90
2022/12/03 03:34:40;;;;;;;;;;;2.40;90.90;;;;;;4961423;29;1902;-88
2022/12/03 03:37:08;;;;;;;;;;;2.50;91.20;;;;;;4967914;28;1517;-88
2022/12/03 03:39:36;;;;;;;;;;;2.70;90.80;;;;;;4979708;28;1624;-89
2022/12/03 03:42:03;;;;;;;;;;;2.40;90.70;;;;;;4982225;28;1021;-89
2022/12/03 03:44:32;;;;;;;;;;;2.40;90.80;;;;;;4980268;28;1719;-87
2022/12/03 03:47:00;;;;;;;;;;;2.40;91.20;;;;;;4980337;28;1554;-88
2022/12/03 03:49:28;;;;;;;;;;;2.40;90.70;;;;;;4966267;28;1627;-88
2022/12/03 03:51:58;;;;;;;;;;;2.50;91.20;;;;;;4969542;28;1545;-90
2022/12/03 03:54:26;;;;;;;;;;;2.40;91.00;;;;;;4966067;28;1723;-89
2022/12/03 03:56:53;;;;;;;;;;;2.40;91.10;;;;;;4963276;29;1966;-87
2022/12/03 03:59:21;;;;;;;;;;;2.40;91.00;;;;;;4963134;28;1284;-88
2022/12/03 04:01:49;;;;;;;;;;;2.50;90.90;;;;;;4962420;29;1559;-88
2022/12/03 04:04:18;;;;;;;;;;;2.50;91.00;;;;;;4962698;29;978;-88
2022/12/03 04:06:46;;;;;;;;;;;2.70;91.20;;;;;;4964954;28;1700;-88
2022/12/03 04:09:15;;;;;;;;;;;2.50;90.90;;;;;;4970345;28;1340;-88
2022/12/03 04:14:28;;;;;;;;;;;2.50;91.20;;;;;;4961496;29;1509;-89
2022/12/03 04:16:56;;;;;;;;;;;2.50;90.90;;;;;;4962221;28;1902;-89
2022/12/03 04:19:24;;;;;;;;;;;2.70;91.10;;;;;;4962983;28;1615;-88
2022/12/03 04:24:38;;;;;;;;;;;2.50;91.10;;;;;;4965960;28;1538;-86
2022/12/03 04:29:51;;;;;;;;;;;2.80;91.20;;;;;;4983201;28;1683;-88
2022/12/03 04:37:49;;;;;;;;;;;2.40;91.10;;;;;;4972599;28;1500;-88
2022/12/03 04:43:03;;;;;;;;;;;2.50;91.30;;;;;;4967621;28;1684;-90
2022/12/03 04:45:31;;;;;;;;;;;2.20;91.30;;;;;;4971268;28;1144;-89
2022/12/03 04:47:59;;;;;;;;;;;2.20;91.00;;;;;;4971187;28;1733;-89
2022/12/03 04:50:26;;;;;;;;;;;2.20;90.90;;;;;;4970703;28;1724;-89
2022/12/03 04:52:54;;;;;;;;;;;2.20;90.80;;;;;;4968121;28;1006;-89
2022/12/03 04:55:23;;;;;;;;;;;2.50;90.80;;;;;;4964978;28;1899;-90
2022/12/03 04:57:51;;;;;;;;;;;2.10;90.90;;;;;;4967579;28;1339;-89
2022/12/03 05:00:19;;;;;;;;;;;2.10;90.80;;;;;;4974391;28;1448;-89
2022/12/03 05:02:46;;;;;;;;;;;2.00;90.80;;;;;;4979645;28;1124;-88
2022/12/03 05:05:14;;;;;;;;;;;2.10;90.80;;;;;;4977213;28;993;-89
2022/12/03 05:07:42;;;;;;;;;;;2.30;90.60;;;;;;4967994;28;1367;-89
2022/12/03 05:10:10;;;;;;;;;;;2.10;90.70;;;;;;4963347;29;1010;-88
2022/12/03 05:12:39;;;;;;;;;;;2.20;90.80;;;;;;4962398;28;1257;-87
2022/12/03 05:15:07;;;;;;;;;;;2.30;90.70;;;;;;4969529;28;1501;-89
2022/12/03 05:17:35;;;;;;;;;;;2.20;90.50;;;;;;4968800;28;1902;-88
2022/12/03 05:22:48;;;;;;;;;;;2.10;90.80;;;;;;4965493;28;1006;-86
2022/12/03 05:25:16;;;;;;;;;;;2.10;90.50;;;;;;4969222;28;1546;-85
2022/12/03 05:27:45;;;;;;;;;;;2.10;90.60;;;;;;4959210;28;1392;-86
2022/12/03 05:30:15;;;;;;;;;;;2.40;90.80;;;;;;4965709;28;1076;-85
2022/12/03 05:32:43;;;;;;;;;;;2.20;90.80;;;;;;4969763;28;1070;-85
2022/12/03 05:35:10;;;;;;;;;;;2.10;90.40;;;;;;4988948;28;1105;-85
2022/12/03 05:37:38;;;;;;;;;;;2.30;90.70;;;;;;4968455;28;1980;-85
2022/12/03 05:40:06;;;;;;;;;;;2.20;90.40;;;;;;4961051;28;1030;-85
2022/12/03 05:45:21;;;;;;;;;;;2.00;90.50;;;;;;4966532;28;1069;-86
2022/12/03 05:47:49;;;;;;;;;;;2.10;90.90;;;;;;4965664;28;1628;-85
2022/12/03 05:50:17;;;;;;;;;;;2.20;90.40;;;;;;4972948;28;1046;-86
2022/12/03 05:52:45;;;;;;;;;;;2.10;90.60;;;;;;4961069;29;1056;-86
2022/12/03 05:55:12;;;;;;;;;;;2.00;90.40;;;;;;4960976;29;995;-86
2022/12/03 05:57:40;;;;;;;;;;;2.20;90.60;;;;;;4960858;28;1907;-87
2022/12/03 06:00:13;;;;;;;;;;;2.20;90.30;;;;;;4974058;28;1005;-88
2022/12/03 06:02:42;;;;;;;;;;;2.20;90.70;;;;;;4965735;28;1642;-86
2022/12/03 06:05:11;;;;;;;;;;;2.20;90.80;;;;;;4961504;29;1153;-88
2022/12/03 06:07:39;;;;;;;;;;;2.10;90.60;;;;;;4965348;28;1328;-85
2022/12/03 06:10:08;;;;;;;;;;;2.10;90.30;;;;;;4978366;28;1252;-85
2022/12/03 06:12:36;;;;;;;;;;;2.00;90.70;;;;;;4974217;28;986;-84
2022/12/03 06:15:05;;;;;;;;;;;2.10;90.20;;;;;;4971724;28;990;-85
2022/12/03 06:17:33;;;;;;;;;;;2.10;90.50;;;;;;4969942;28;1942;-86
2022/12/03 06:20:02;;;;;;;;;;;2.10;90.20;;;;;;4968523;28;1061;-86
2022/12/03 06:22:30;;;;;;;;;;;1.70;90.80;;;;;;4966652;28;992;-87
2022/12/03 06:24:58;;;;;;;;;;;1.70;90.30;;;;;;4968934;28;1252;-86
2022/12/03 06:27:33;;;;;;;;;;;1.70;90.70;;;;;;4969333;28;1577;-85
2022/12/03 06:30:00;;;;;;;;;;;1.70;90.60;;;;;;4973746;28;1093;-85
2022/12/03 06:32:50;;;;;;;;;;;1.60;90.40;;;;;;4969695;28;1056;-86
2022/12/03 06:35:19;;;;;;;;;;;1.50;90.10;;;;;;4961028;29;1693;-86
2022/12/03 06:37:46;;;;;;;;;;;1.60;90.50;;;;;;4965623;28;1960;-89
2022/12/03 06:40:15;;;;;;;;;;;1.50;90.10;;;;;;4986086;28;1553;-85
2022/12/03 06:42:46;;;;;;;;;;;1.60;90.50;;;;;;4972132;28;1656;-86
2022/12/03 06:45:13;;;;;;;;;;;1.70;90.20;;;;;;4980656;28;1444;-87
2022/12/03 06:47:41;;;;;;;;;;;1.70;90.30;;;;;;4968015;28;2382;-84
2022/12/03 06:50:09;;;;;;;;;;;1.70;90.20;;;;;;4971087;28;1591;-85
2022/12/03 06:52:38;;;;;;;;;;;1.80;90.10;;;;;;4968714;28;1368;-83
2022/12/03 06:55:06;;;;;;;;;;;1.80;89.70;;;;;;4965781;28;989;-84
2022/12/03 06:57:34;;;;;;;;;;;1.80;89.90;;;;;;4959908;28;1910;-85
2022/12/03 07:00:02;;;;;;;;;;;1.60;89.50;;;;;;4974756;28;1050;-84
2022/12/03 07:02:29;;;;;;;;;;;1.70;89.90;;;;;;4969484;28;1283;-84
2022/12/03 07:04:57;;;;;;;;;;;1.70;89.60;;;;;;4970593;28;1265;-84
2022/12/03 07:07:25;;;;;;;;;;;1.70;89.60;;;;;;4968817;28;1301;-83
2022/12/03 07:09:54;;;;;;;;;;;1.70;89.40;;;;;;4964981;28;2081;-83
2022/12/03 07:12:22;;;;;;;;;;;1.80;89.80;;;;;;4963396;28;1510;-86
2022/12/03 07:14:53;;;;;;;;;;;1.80;89.60;;;;;;4963890;29;1067;-85
2022/12/03 07:17:20;;;;;;;;;;;1.90;89.10;;;;;;4974725;28;1899;-85
2022/12/03 07:19:48;;;;;;;;;;;1.90;89.50;;;;;;4963636;28;1399;-83
2022/12/03 07:22:16;;;;;;;;;;;1.80;89.00;;;;;;4964443;29;1041;-84
2022/12/03 07:24:44;;;;;;;;;;;1.90;89.50;;;;;;4969754;28;1118;-85
2022/12/03 07:27:13;;;;;;;;;;;1.90;88.80;;;;;;4973886;28;2260;-87
2022/12/03 07:29:40;;;;;;;;;;;2.10;89.60;;;;;;4965788;28;1320;-83
2022/12/03 07:32:08;;;;;;;;;;;1.90;88.90;;;;;;4961879;29;1554;-85
2022/12/03 07:34:36;;;;;;;;;;;1.80;89.20;;;;;;4962877;29;1729;-88
2022/12/03 07:37:04;;;;;;;;;;;1.80;90.00;;;;;;4963643;29;1907;-86
2022/12/03 07:39:31;;;;;;;;;;;1.70;89.50;;;;;;4973153;28;1269;-87
2022/12/03 07:42:01;;;;;;;;;;;1.70;90.30;;;;;;4977252;28;1697;-87
2022/12/03 07:44:31;;;;;;;;;;;1.80;90.00;;;;;;4986911;28;1152;-85
2022/12/03 07:46:59;;;;;;;;;;;1.50;90.00;;;;;;4992997;28;1723;-88
2022/12/03 07:49:26;;;;;;;;;;;1.40;90.20;;;;;;4992315;28;1565;-88
2022/12/03 07:51:57;;;;;;;;;;;1.50;90.00;;;;;;5002916;28;1022;-87
2022/12/03 07:54:26;;;;;;;;;;;1.50;90.40;;;;;;5003176;28;1684;-88
2022/12/03 07:56:53;;;;;;;;;;;1.70;90.60;;;;;;5002683;28;1887;-88
2022/12/03 07:59:28;;;;;;;;;;;1.80;90.20;;;;;;4990725;28;1548;-88
2022/12/03 08:01:57;;;;;;;;;;;1.70;90.20;;;;;;5003084;28;1084;-89
2022/12/03 08:04:25;;;;;;;;;;;1.70;90.00;;;;;;4997617;28;891;-87
2022/12/03 08:06:53;;;;;;;;;;;1.80;89.90;;;;;;5001010;28;1576;-86
2022/12/03 08:09:21;;;;;;;;;;;1.90;88.60;;;;;;5003181;28;1220;-90
2022/12/03 08:11:49;;;;;;;;;;;2.40;88.80;;;;;;5002144;28;1673;-88
2022/12/03 08:14:17;;;;;;;;;;;2.10;88.30;;;;;;5002767;28;1062;-86
2022/12/03 08:16:45;;;;;;;;;;;2.00;89.90;;;;;;5001591;28;1517;-89
2022/12/03 08:19:16;;;;;;;;;;;2.20;89.10;;;;;;4990288;28;1895;-86
2022/12/03 08:21:44;;;;;;;;;;;2.20;89.00;;;;;;4970788;29;1046;-89
2022/12/03 08:24:13;;;;;;;;;;;2.20;89.20;;;;;;4965219;28;1612;-87
2022/12/03 08:26:44;;;;;;;;;;;2.20;89.20;;;;;;4972565;28;1526;-87
2022/12/03 08:29:13;;;;;;;;;;;2.40;87.90;;;;;;4970633;28;2302;-85
2022/12/03 08:31:47;;;;;;;;;;;2.30;87.80;;;;;;4973869;28;1396;-84
2022/12/03 08:34:17;;;;;;;;;;;2.30;90.00;;;;;;4978214;28;1010;-84
2022/12/03 08:36:46;;;;;;;;;;;2.30;89.80;;;;;;4974919;28;1810;-85
2022/12/03 08:39:27;;;;;;;;;;;2.40;88.90;;;;;;4961967;28;1907;-85
2022/12/03 08:44:43;;;;;;;;;;;2.60;89.10;;;;;;4966410;29;1424;-86
2022/12/03 08:47:18;;;;;;;;;;;2.50;87.10;;;;;;4980130;28;1117;-85
2022/12/03 08:49:52;;;;;;;;;;;2.60;88.80;;;;;;4980039;28;1681;-83
2022/12/03 08:52:20;;;;;;;;;;;2.60;88.40;;;;;;4983290;28;1376;-83
2022/12/03 08:54:51;;;;;;;;;;;2.40;88.10;;;;;;4968480;28;1154;-83
2022/12/03 08:57:24;;;;;;;;;;;2.40;89.30;;;;;;4978194;28;1906;-84
2022/12/03 08:59:53;;;;;;;;;;;2.50;88.40;;;;;;4972433;28;2220;-85
2022/12/03 09:02:25;;;;;;;;;;;2.40;87.50;;;;;;4972609;28;2105;-84
2022/12/03 09:04:54;;;;;;;;;;;2.40;88.40;;;;;;4971921;28;1149;-83
2022/12/03 09:07:22;;;;;;;;;;;2.70;87.90;;;;;;4968631;28;1037;-82
2022/12/03 09:09:49;;;;;;;;;;;3.00;87.20;;;;;;4976149;28;1407;-84
2022/12/03 09:12:17;;;;;;;;;;;3.20;86.70;;;;;;4964113;29;1058;-85
2022/12/03 09:14:45;;;;;;;;;;;3.10;86.50;;;;;;4970514;28;1082;-85
2022/12/03 09:17:12;;;;;;;;;;;2.90;86.30;;;;;;4974853;28;1316;-84
2022/12/03 09:19:43;;;;;;;;;;;3.10;86.20;;;;;;4968690;28;2033;-83
2022/12/03 09:22:16;;;;;;;;;;;3.20;87.00;;;;;;4975145;28;1124;-82
2022/12/03 09:24:43;;;;;;;;;;;3.30;86.70;;;;;;4965342;28;1146;-81
2022/12/03 09:27:11;;;;;;;;;;;3.40;86.90;;;;;;4976196;28;1098;-84
2022/12/03 09:29:39;;;;;;;;;;;3.30;86.50;;;;;;4978011;28;1538;-81
2022/12/03 09:32:07;;;;;;;;;;;3.40;85.40;;;;;;4975889;28;1471;-82
2022/12/03 09:34:37;;;;;;;;;;;3.30;84.20;;;;;;4969031;28;981;-83
2022/12/03 09:37:05;;;;;;;;;;;3.60;86.50;;;;;;4975671;28;1180;-82
2022/12/03 09:39:35;;;;;;;;;;;3.50;85.60;;;;;;4972702;28;1906;-83
2022/12/03 09:42:03;;;;;;;;;;;3.60;84.90;;;;;;4975474;28;1496;-84
2022/12/03 09:44:32;;;;;;;;;;;3.60;85.80;;;;;;4977899;28;1169;-83
2022/12/03 09:47:00;;;;;;;;;;;3.40;84.00;;;;;;4972625;28;1161;-85
2022/12/03 09:49:28;;;;;;;;;;;3.80;85.40;;;;;;4965630;28;1194;-82
2022/12/03 09:51:57;;;;;;;;;;;3.50;84.50;;;;;;4975471;28;1000;-85
2022/12/03 09:54:26;;;;;;;;;;;3.30;84.20;;;;;;4975212;28;1149;-86
2022/12/03 09:56:56;;;;;;;;;;;3.20;85.10;;;;;;4986479;28;1355;-85
2022/12/03 09:59:26;;;;;;;;;;;3.40;84.70;;;;;;4973598;28;1903;-84
2022/12/03 10:01:54;;;;;;;;;;;3.40;85.10;;;;;;4968142;28;1085;-86
2022/12/03 10:04:21;;;;;;;;;;;3.40;84.30;;;;;;4968523;28;1057;-84
2022/12/03 10:06:49;;;;;;;;;;;3.80;85.10;;;;;;4974824;28;1177;-84
2022/12/03 10:09:22;;;;;;;;;;;3.80;84.60;;;;;;4973601;28;1522;-86
2022/12/03 10:11:49;;;;;;;;;;;3.70;84.20;;;;;;4963248;29;1176;-85
2022/12/03 10:14:19;;;;;;;;;;;3.80;82.80;;;;;;4962645;29;1002;-86
2022/12/03 10:16:47;;;;;;;;;;;3.50;83.30;;;;;;4978442;28;1517;-86
2022/12/03 10:19:18;;;;;;;;;;;3.40;82.20;;;;;;4966994;28;1915;-86
2022/12/03 10:21:46;;;;;;;;;;;3.50;83.40;;;;;;4970989;28;1053;-91
2022/12/03 10:24:19;;;;;;;;;;;3.60;83.50;;;;;;4966123;28;1555;-89
2022/12/03 10:26:48;;;;;;;;;;;3.50;83.70;;;;;;4971322;28;1555;-88
2022/12/03 10:29:18;;;;;;;;;;;3.60;83.60;;;;;;4972794;28;1683;-87
2022/12/03 10:31:53;;;;;;;;;;;3.80;83.80;;;;;;4964085;29;1607;-90
2022/12/03 10:34:25;;;;;;;;;;;3.70;83.40;;;;;;4965812;29;1752;-91
2022/12/03 10:37:12;;;;;;;;;;;3.90;84.40;;;;;;4974197;28;1598;-90
2022/12/03 10:39:54;;;;;;;;;;;4.00;84.30;;;;;;4982597;28;1910;-90
2022/12/03 10:42:32;;;;;;;;;;;3.80;84.00;;;;;;4979191;28;1694;-90
2022/12/03 10:45:13;;;;;;;;;;;3.70;83.40;;;;;;4976326;28;1594;-90
2022/12/03 10:47:44;;;;;;;;;;;3.50;83.90;;;;;;4975275;28;1534;-85
2022/12/03 10:50:16;;;;;;;;;;;3.40;82.70;;;;;;4975247;28;1739;-86
2022/12/03 10:52:44;;;;;;;;;;;3.40;83.80;;;;;;4974884;28;1817;-85
2022/12/03 10:55:13;;;;;;;;;;;3.60;83.60;;;;;;4979013;28;1829;-84
2022/12/03 10:57:40;;;;;;;;;;;3.40;83.20;;;;;;4979947;28;1694;-85
2022/12/03 11:00:16;;;;;;;;;;;3.60;82.10;;;;;;4982479;28;1879;-85
2022/12/03 11:02:47;;;;;;;;;;;3.50;83.40;;;;;;4989396;28;1035;-83
2022/12/03 11:05:27;;;;;;;;;;;3.70;83.20;;;;;;4983342;28;1419;-84
2022/12/03 11:07:55;;;;;;;;;;;3.30;83.00;;;;;;4976579;28;1566;-85
2022/12/03 11:10:23;;;;;;;;;;;3.20;83.60;;;;;;4983086;28;1280;-84
2022/12/03 11:13:10;;;;;;;;;;;3.30;83.00;;;;;;4978665;28;1628;-83
2022/12/03 11:15:42;;;;;;;;;;;3.40;83.60;;;;;;4972581;28;1129;-85
2022/12/03 11:18:11;;;;;;;;;;;3.50;83.80;;;;;;4970765;28;1367;-85
2022/12/03 11:20:58;;;;;;;;;;;3.50;83.80;;;;;;4974020;28;1971;-84
2022/12/03 11:23:41;;;;;;;;;;;3.50;84.10;;;;;;4967994;28;1556;-89
2022/12/03 11:26:09;;;;;;;;;;;3.30;83.60;;;;;;4963779;29;1672;-85
2022/12/03 11:28:52;;;;;;;;;;;3.50;83.80;;;;;;4978292;28;1681;-85
2022/12/03 11:31:34;;;;;;;;;;;3.50;83.20;;;;;;4975860;28;1397;-85
2022/12/03 11:34:20;;;;;;;;;;;3.50;83.80;;;;;;4975929;28;1018;-86
2022/12/03 11:37:03;;;;;;;;;;;3.40;84.10;;;;;;4976013;28;1296;-86
2022/12/03 11:40:01;;;;;;;;;;;3.60;84.50;;;;;;4962339;28;1910;-83
2022/12/03 11:42:39;;;;;;;;;;;3.60;84.00;;;;;;4915304;29;1574;-86
2022/12/03 11:45:15;;;;;;;;;;;3.40;83.30;;;;;;4972552;28;1556;-87
2022/12/03 11:47:45;;;;;;;;;;;3.30;83.20;;;;;;4978809;28;1449;-85
2022/12/03 11:50:21;;;;;;;;;;;3.20;82.30;;;;;;4973908;28;1455;-83
2022/12/03 11:52:54;;;;;;;;;;;3.50;83.90;;;;;;4967320;28;1549;-86
2022/12/03 11:55:29;;;;;;;;;;;3.20;83.40;;;;;;4967312;29;966;-84
2022/12/03 11:57:59;;;;;;;;;;;3.40;84.20;;;;;;4971931;28;1403;-84
2022/12/03 12:00:27;;;;;;;;;;;3.20;84.00;;;;;;4978647;28;1914;-86
2022/12/03 12:02:55;;;;;;;;;;;3.60;84.20;;;;;;4964155;29;1281;-85
2022/12/03 12:05:26;;;;;;;;;;;3.50;83.80;;;;;;4965797;29;1049;-86
2022/12/03 12:07:54;;;;;;;;;;;3.70;83.80;;;;;;4988323;28;1526;-84
2022/12/03 12:10:42;;;;;;;;;;;3.40;84.30;;;;;;4976625;28;1566;-85
2022/12/03 12:13:25;;;;;;;;;;;3.60;84.10;;;;;;4972983;28;963;-84
2022/12/03 12:15:54;;;;;;;;;;;3.50;83.50;;;;;;4966684;28;1109;-86
2022/12/03 12:18:38;;;;;;;;;;;3.40;83.60;;;;;;4963126;28;1507;-86
2022/12/03 12:21:25;;;;;;;;;;;3.60;84.20;;;;;;4963044;29;1903;-86
2022/12/03 12:23:52;;;;;;;;;;;3.50;84.30;;;;;;4979344;28;1616;-88
2022/12/03 12:26:20;;;;;;;;;;;3.70;83.60;;;;;;4966294;29;1026;-84
2022/12/03 12:28:48;;;;;;;;;;;3.50;83.50;;;;;;4963247;28;1391;-86
2022/12/03 12:31:17;;;;;;;;;;;3.60;83.10;;;;;;4970405;28;1435;-84
2022/12/03 12:33:59;;;;;;;;;;;3.70;83.80;;;;;;4965155;29;1547;-85
2022/12/03 12:36:27;;;;;;;;;;;3.70;83.30;;;;;;4971225;28;1085;-85
2022/12/03 12:38:55;;;;;;;;;;;3.60;83.00;;;;;;4973745;28;1758;-85
2022/12/03 12:41:24;;;;;;;;;;;3.40;81.90;;;;;;4973527;28;1911;-84
2022/12/03 12:46:54;;;;;;;;;;;3.50;83.60;;;;;;4957538;28;1818;-86
2022/12/03 12:49:25;;;;;;;;;;;3.40;84.00;;;;;;4974898;28;1623;-87
2022/12/03 12:51:53;;;;;;;;;;;3.30;85.10;;;;;;4977250;28;1758;-86
2022/12/03 12:54:21;;;;;;;;;;;3.70;84.20;;;;;;4974135;28;1037;-84
2022/12/03 12:56:49;;;;;;;;;;;3.60;83.60;;;;;;4973952;28;1033;-85
2022/12/03 12:59:18;;;;;;;;;;;3.60;83.40;;;;;;4978912;28;1654;-86
2022/12/03 13:01:46;;;;;;;;;;;3.50;84.30;;;;;;4973616;28;2014;-86
2022/12/03 13:04:16;;;;;;;;;;;3.10;83.60;;;;;;4961849;29;1542;-85
2022/12/03 13:06:44;;;;;;;;;;;3.30;84.00;;;;;;4978379;28;1605;-87
2022/12/03 13:09:14;;;;;;;;;;;3.40;84.60;;;;;;4963263;28;1572;-87
2022/12/03 13:11:44;;;;;;;;;;;3.40;84.30;;;;;;4966864;28;1006;-87
2022/12/03 13:14:14;;;;;;;;;;;3.60;84.00;;;;;;4981977;28;964;-88
2022/12/03 13:16:42;;;;;;;;;;;3.40;84.30;;;;;;4963815;29;1578;-89
2022/12/03 13:19:16;;;;;;;;;;;3.50;83.30;;;;;;4960556;28;1462;-88
2022/12/03 13:21:45;;;;;;;;;;;3.60;84.00;;;;;;4961119;29;1887;-87
2022/12/03 13:24:28;;;;;;;;;;;3.60;83.50;;;;;;4960697;29;1201;-86
2022/12/03 13:26:56;;;;;;;;;;;3.50;84.50;;;;;;4961851;29;1077;-85
2022/12/03 13:29:25;;;;;;;;;;;3.50;84.40;;;;;;4971232;28;1546;-89
2022/12/03 13:31:54;;;;;;;;;;;3.60;83.30;;;;;;4969334;28;1383;-87
2022/12/03 13:34:23;;;;;;;;;;;3.70;83.50;;;;;;4967211;28;1396;-86
2022/12/03 13:36:52;;;;;;;;;;;3.60;84.30;;;;;;4962740;28;1225;-88
2022/12/03 13:39:30;;;;;;;;;;;3.70;83.80;;;;;;4975660;28;1685;-88
2022/12/03 13:44:46;;;;;;;;;;;3.50;83.90;;;;;;4973418;28;998;-88
2022/12/03 13:47:18;;;;;;;;;;;3.60;84.80;;;;;;4970998;28;1921;-88
2022/12/03 13:49:49;;;;;;;;;;;3.40;83.30;;;;;;4971628;28;1403;-89
2022/12/03 13:52:19;;;;;;;;;;;3.40;83.40;;;;;;4970869;28;1544;-91
2022/12/03 13:54:51;;;;;;;;;;;3.50;84.00;;;;;;4971958;28;1398;-88
2022/12/03 13:57:31;;;;;;;;;;;3.80;83.10;;;;;;4974636;28;1516;-90
2022/12/03 14:02:57;;;;;;;;;;;3.30;83.20;;;;;;4970494;28;1503;-87
2022/12/03 14:05:27;;;;;;;;;;;3.30;82.50;;;;;;4968936;28;1663;-87
2022/12/03 14:07:57;;;;;;;;;;;3.40;82.50;;;;;;4967468;28;1549;-88
2022/12/03 14:10:25;;;;;;;;;;;3.30;83.70;;;;;;4975206;28;1065;-89
2022/12/03 14:12:52;;;;;;;;;;;3.20;82.80;;;;;;4964241;28;1622;-86
2022/12/03 14:15:21;;;;;;;;;;;3.20;84.00;;;;;;4982215;28;1609;-84
2022/12/03 14:17:49;;;;;;;;;;;3.30;83.40;;;;;;4982001;28;1686;-83
2022/12/03 14:20:17;;;;;;;;;;;3.30;82.90;;;;;;4989121;28;1888;-85
2022/12/03 14:22:45;;;;;;;;;;;3.30;83.50;;;;;;4976967;28;1379;-85
2022/12/03 14:25:14;;;;;;;;;;;3.60;83.50;;;;;;4975752;28;1086;-86
2022/12/03 14:27:42;;;;;;;;;;;3.40;83.50;;;;;;4978371;28;1597;-87
2022/12/03 14:30:10;;;;;;;;;;;3.40;83.30;;;;;;4970769;28;1435;-87
2022/12/03 14:32:38;;;;;;;;;;;3.40;84.10;;;;;;4969640;28;1477;-87
2022/12/03 14:35:06;;;;;;;;;;;3.30;83.80;;;;;;4971790;28;1022;-86
2022/12/03 14:37:36;;;;;;;;;;;3.10;84.70;;;;;;4972687;28;1398;-85
2022/12/03 14:40:07;;;;;;;;;;;3.10;84.20;;;;;;4963333;28;1548;-86
2022/12/03 14:42:36;;;;;;;;;;;3.10;85.00;;;;;;4975075;28;1906;-87
2022/12/03 14:45:05;;;;;;;;;;;2.90;85.50;;;;;;4961470;29;1058;-87
2022/12/03 14:47:33;;;;;;;;;;;3.00;85.00;;;;;;4962860;28;1507;-86
2022/12/03 14:50:01;;;;;;;;;;;3.00;84.60;;;;;;4966915;28;1709;-87
2022/12/03 14:52:28;;;;;;;;;;;3.00;85.20;;;;;;4971884;28;1534;-85
2022/12/03 14:54:56;;;;;;;;;;;3.00;84.90;;;;;;4973637;28;1593;-87
2022/12/03 14:57:24;;;;;;;;;;;3.30;84.20;;;;;;4972330;28;1580;-88
2022/12/03 14:59:53;;;;;;;;;;;3.10;84.40;;;;;;4978793;28;1394;-86
2022/12/03 15:02:21;;;;;;;;;;;2.90;85.50;;;;;;4993904;28;1920;-85
2022/12/03 15:04:49;;;;;;;;;;;3.10;85.10;;;;;;4987285;28;1535;-86
2022/12/03 15:07:17;;;;;;;;;;;2.90;84.90;;;;;;4974024;28;1060;-85
2022/12/03 15:09:44;;;;;;;;;;;3.00;85.30;;;;;;4964336;28;1537;-87
2022/12/03 15:12:12;;;;;;;;;;;3.00;85.40;;;;;;4972875;28;1007;-86
2022/12/03 15:14:40;;;;;;;;;;;3.10;84.80;;;;;;4978754;28;1458;-87
2022/12/03 15:17:09;;;;;;;;;;;3.10;85.10;;;;;;4963765;28;1109;-87
2022/12/03 15:19:37;;;;;;;;;;;3.00;85.70;;;;;;4989009;28;1190;-83
2022/12/03 15:22:05;;;;;;;;;;;3.00;85.80;;;;;;4988421;28;1968;-86
2022/12/03 15:24:34;;;;;;;;;;;3.00;86.40;;;;;;4978528;28;1699;-86
2022/12/03 15:27:01;;;;;;;;;;;3.00;85.50;;;;;;4966120;28;1337;-85
2022/12/03 15:29:29;;;;;;;;;;;3.00;85.90;;;;;;4959782;28;1332;-85
2022/12/03 15:31:58;;;;;;;;;;;2.90;85.80;;;;;;4963918;28;1090;-85
2022/12/03 15:34:27;;;;;;;;;;;2.90;85.80;;;;;;4978025;28;1002;-87
2022/12/03 15:36:55;;;;;;;;;;;2.90;87.10;;;;;;4984356;28;1545;-87
2022/12/03 15:39:22;;;;;;;;;;;3.20;86.50;;;;;;4980530;28;1376;-86